createdAt,value
2018-09-01T00:00:14.659Z,10.50
2018-09-01T00:00:48.511Z,10.90
2018-09-01T00:01:22.365Z,10.60
2018-09-01T00:01:56.345Z,10.63
2018-09-01T00:02:30.221Z,10.10
2018-09-01T00:03:04.101Z,10.03
2018-09-01T00:03:37.937Z,11.20
2018-09-01T00:04:11.821Z,11.30
2018-09-01T00:04:45.658Z,10.10
2018-09-01T00:05:19.509Z,10.50
2018-09-01T00:05:53.739Z,10.17
2018-09-01T00:06:27.925Z,11.10
2018-09-01T00:07:02.089Z,10.87
2018-09-01T00:07:35.949Z,10.63
2018-09-01T00:08:09.823Z,11.60
2018-09-01T00:08:43.675Z,11.50
2018-09-01T00:09:17.575Z,10.90
2018-09-01T00:09:51.510Z,10.30
2018-09-01T00:10:25.722Z,12.67
2018-09-01T00:10:59.579Z,11.43
2018-09-01T00:11:33.579Z,11.43
2018-09-01T00:12:08.381Z,12.03
2018-09-01T00:12:42.261Z,11.17
2018-09-01T00:13:16.093Z,11.47
2018-09-01T00:13:49.978Z,11.63
2018-09-01T00:14:23.863Z,12.30
2018-09-01T00:14:57.706Z,12.40
2018-09-01T00:15:31.593Z,11.17
2018-09-01T00:16:05.808Z,11.30
2018-09-01T00:16:39.655Z,11.63
2018-09-01T00:17:17.725Z,10.87
2018-09-01T00:17:51.933Z,11.50
2018-09-01T00:18:25.781Z,10.53
2018-09-01T00:18:59.661Z,12.17
2018-09-01T00:19:33.806Z,11.60
2018-09-01T00:20:08.341Z,10.70
2018-09-01T00:20:42.534Z,11.30
2018-09-01T00:21:16.391Z,11.40
2018-09-01T00:21:50.568Z,12.43
2018-09-01T00:22:24.489Z,11.03
2018-09-01T00:22:58.292Z,11.97
2018-09-01T00:23:32.150Z,11.43
2018-09-01T00:24:11.143Z,12.53
2018-09-01T00:24:45.371Z,11.63
2018-09-01T00:25:19.520Z,12.50
2018-09-01T00:25:53.382Z,11.23
2018-09-01T00:26:27.280Z,11.90
2018-09-01T00:27:01.144Z,11.13
2018-09-01T00:27:35.012Z,12.03
2018-09-01T00:28:09.213Z,12.33
2018-09-01T00:28:43.406Z,11.50
2018-09-01T00:29:17.247Z,12.77
2018-09-01T00:29:51.965Z,12.20
2018-09-01T00:30:25.865Z,10.60
2018-09-01T00:30:59.868Z,12.77
2018-09-01T00:31:33.700Z,10.57
2018-09-01T00:32:07.532Z,11.67
2018-09-01T00:32:41.382Z,12.10
2018-09-01T00:33:15.238Z,10.60
2018-09-01T00:33:49.066Z,12.07
2018-09-01T00:34:23.233Z,11.63
2018-09-01T00:34:57.108Z,11.60
2018-09-01T00:35:30.955Z,12.63
2018-09-01T00:36:04.831Z,12.33
2018-09-01T00:36:39.362Z,11.67
2018-09-01T00:37:13.386Z,12.37
2018-09-01T00:37:53.557Z,12.50
2018-09-01T00:38:33.104Z,13.23
2018-09-01T00:39:08.080Z,12.97
2018-09-01T00:39:43.833Z,12.27
2018-09-01T00:40:18.082Z,12.77
2018-09-01T00:40:51.962Z,12.83
2018-09-01T00:41:25.826Z,12.37
2018-09-01T00:42:00.044Z,11.90
2018-09-01T00:42:33.929Z,12.70
2018-09-01T00:43:08.140Z,12.50
2018-09-01T00:43:42.344Z,12.03
2018-09-01T00:44:16.215Z,12.00
2018-09-01T00:44:50.085Z,12.23
2018-09-01T00:45:24.298Z,12.90
2018-09-01T00:45:58.807Z,13.03
2018-09-01T00:46:33.326Z,12.27
2018-09-01T00:47:07.186Z,12.30
2018-09-01T00:47:41.062Z,13.00
2018-09-01T00:48:14.916Z,12.80
2018-09-01T00:48:48.777Z,11.90
2018-09-01T00:49:22.645Z,12.90
2018-09-01T00:49:57.122Z,13.07
2018-09-01T00:50:31.008Z,12.10
2018-09-01T00:51:05.205Z,11.47
2018-09-01T00:51:39.058Z,12.27
2018-09-01T00:52:12.954Z,13.27
2018-09-01T00:52:47.144Z,12.00
2018-09-01T00:53:20.991Z,12.70
2018-09-01T00:53:55.194Z,12.63
2018-09-01T00:54:29.042Z,12.73
2018-09-01T00:55:02.881Z,13.10
2018-09-01T00:55:36.758Z,11.87
2018-09-01T00:56:10.624Z,13.63
2018-09-01T00:56:44.470Z,12.80
2018-09-01T00:57:19.028Z,13.77
2018-09-01T00:57:53.251Z,11.80
2018-09-01T00:58:27.103Z,12.80
2018-09-01T00:59:00.974Z,13.30
2018-09-01T00:59:34.853Z,12.90
2018-09-01T01:00:09.065Z,12.57
2018-09-01T01:00:42.938Z,12.50
2018-09-01T01:01:16.761Z,14.23
2018-09-01T01:01:51.148Z,13.10
2018-09-01T01:02:24.965Z,13.60
2018-09-01T01:02:58.793Z,12.87
2018-09-01T01:03:32.894Z,13.63
2018-09-01T01:04:06.733Z,13.30
2018-09-01T01:04:40.694Z,13.17
2018-09-01T01:05:14.803Z,13.13
2018-09-01T01:05:48.678Z,13.00
2018-09-01T01:06:22.565Z,14.10
2018-09-01T01:06:56.402Z,14.03
2018-09-01T01:07:30.310Z,13.70
2018-09-01T01:08:04.346Z,13.43
2018-09-01T01:08:38.211Z,13.17
2018-09-01T01:09:12.038Z,12.90
2018-09-01T01:09:46.071Z,12.90
2018-09-01T01:10:20.290Z,14.43
2018-09-01T01:10:54.251Z,15.17
2018-09-01T01:11:28.112Z,13.83
2018-09-01T01:12:02.298Z,13.20
2018-09-01T01:12:36.291Z,14.00
2018-09-01T01:13:10.201Z,13.20
2018-09-01T01:13:44.066Z,13.43
2018-09-01T01:14:17.977Z,13.77
2018-09-01T01:14:51.858Z,13.67
2018-09-01T01:15:26.054Z,13.63
2018-09-01T01:15:59.967Z,13.20
2018-09-01T01:16:33.883Z,13.20
2018-09-01T01:17:07.846Z,14.20
2018-09-01T01:17:42.066Z,14.03
2018-09-01T01:18:15.956Z,13.93
2018-09-01T01:18:49.870Z,14.37
2018-09-01T01:19:23.728Z,13.63
2018-09-01T01:19:57.889Z,14.73
2018-09-01T01:20:31.744Z,13.50
2018-09-01T01:21:05.964Z,13.93
2018-09-01T01:21:40.147Z,13.70
2018-09-01T01:22:14.028Z,13.40
2018-09-01T01:22:47.874Z,14.93
2018-09-01T01:23:21.840Z,13.70
2018-09-01T01:23:56.020Z,14.00
2018-09-01T01:24:30.225Z,13.90
2018-09-01T01:25:05.022Z,15.60
2018-09-01T01:25:38.928Z,13.13
2018-09-01T01:26:12.818Z,14.23
2018-09-01T01:26:46.656Z,13.00
2018-09-01T01:27:20.495Z,14.87
2018-09-01T01:27:54.364Z,13.57
2018-09-01T01:28:28.253Z,13.97
2018-09-01T01:29:02.119Z,14.43
2018-09-01T01:29:35.970Z,14.03
2018-09-01T01:30:10.188Z,14.70
2018-09-01T01:30:44.343Z,15.47
2018-09-01T01:31:18.257Z,15.00
2018-09-01T01:31:52.470Z,16.23
2018-09-01T01:32:26.328Z,15.43
2018-09-01T01:33:00.158Z,14.90
2018-09-01T01:33:34.252Z,14.90
2018-09-01T01:34:08.140Z,15.90
2018-09-01T01:34:41.997Z,15.83
2018-09-01T01:35:15.894Z,14.87
2018-09-01T01:35:49.858Z,15.23
2018-09-01T01:36:23.748Z,16.57
2018-09-01T01:36:57.634Z,16.30
2018-09-01T01:37:32.804Z,14.53
2018-09-01T01:38:06.988Z,14.03
2018-09-01T01:38:40.850Z,15.60
2018-09-01T01:39:14.714Z,15.50
2018-09-01T01:39:48.572Z,16.50
2018-09-01T01:40:22.614Z,15.50
2018-09-01T01:40:56.474Z,15.27
2018-09-01T01:41:30.360Z,16.17
2018-09-01T01:42:04.232Z,16.40
2018-09-01T01:42:38.070Z,15.90
2018-09-01T01:43:11.923Z,15.87
2018-09-01T01:43:45.824Z,16.27
2018-09-01T01:44:20.014Z,17.10
2018-09-01T01:44:53.863Z,15.37
2018-09-01T01:45:29.242Z,16.43
2018-09-01T01:46:03.116Z,14.80
2018-09-01T01:46:38.056Z,17.27
2018-09-01T01:47:12.272Z,17.20
2018-09-01T01:47:46.450Z,17.37
2018-09-01T01:48:20.308Z,17.63
2018-09-01T01:48:54.155Z,17.80
2018-09-01T01:49:28.034Z,18.80
2018-09-01T01:50:02.080Z,18.27
2018-09-01T01:50:35.932Z,18.17
2018-09-01T01:51:10.324Z,17.47
2018-09-01T01:51:44.190Z,18.27
2018-09-01T01:52:18.686Z,16.90
2018-09-01T01:52:52.850Z,18.07
2018-09-01T01:53:26.736Z,17.97
2018-09-01T01:54:00.610Z,18.03
2018-09-01T01:54:34.446Z,17.67
2018-09-01T01:55:08.328Z,17.67
2018-09-01T01:55:42.526Z,17.00
2018-09-01T01:56:16.378Z,19.00
2018-09-01T01:56:50.266Z,17.20
2018-09-01T01:57:24.190Z,17.23
2018-09-01T01:57:58.040Z,20.03
2018-09-01T01:58:32.196Z,18.40
2018-09-01T01:59:06.874Z,17.10
2018-09-01T01:59:40.780Z,17.30
2018-09-01T02:00:14.980Z,16.70
2018-09-01T02:00:48.794Z,15.70
2018-09-01T02:01:22.634Z,17.97
2018-09-01T02:01:56.838Z,18.10
2018-09-01T02:02:30.696Z,18.53
2018-09-01T02:03:04.862Z,17.23
2018-09-01T02:03:39.066Z,17.87
2018-09-01T02:04:12.954Z,17.57
2018-09-01T02:04:46.824Z,17.80
2018-09-01T02:05:21.663Z,19.73
2018-09-01T02:05:55.874Z,18.20
2018-09-01T02:06:29.768Z,17.33
2018-09-01T02:07:04.020Z,18.57
2018-09-01T02:07:38.682Z,18.00
2018-09-01T02:08:12.576Z,18.23
2018-09-01T02:08:46.470Z,18.10
2018-09-01T02:09:20.337Z,19.00
2018-09-01T02:09:54.280Z,17.30
2018-09-01T02:10:28.766Z,18.87
2018-09-01T02:11:02.640Z,19.87
2018-09-01T02:11:36.826Z,18.40
2018-09-01T02:12:10.740Z,17.97
2018-09-01T02:12:44.632Z,19.67
2018-09-01T02:13:18.485Z,18.50
2018-09-01T02:13:52.432Z,18.40
2018-09-01T02:14:26.270Z,18.50
2018-09-01T02:15:00.144Z,16.33
2018-09-01T02:15:34.018Z,20.20
2018-09-01T02:16:08.196Z,18.10
2018-09-01T02:16:42.044Z,17.47
2018-09-01T02:17:15.972Z,17.60
2018-09-01T02:17:49.838Z,18.13
2018-09-01T02:18:23.682Z,18.73
2018-09-01T02:18:57.557Z,17.90
2018-09-01T02:19:31.780Z,18.47
2018-09-01T02:20:05.642Z,17.60
2018-09-01T02:20:39.494Z,18.17
2018-09-01T02:21:13.333Z,19.13
2018-09-01T02:21:47.215Z,18.20
2018-09-01T02:22:21.114Z,18.27
2018-09-01T02:22:55.010Z,19.00
2018-09-01T02:23:28.824Z,17.00
2018-09-01T02:24:02.694Z,19.27
2018-09-01T02:24:36.546Z,18.13
2018-09-01T02:25:10.413Z,18.23
2018-09-01T02:25:44.356Z,17.63
2018-09-01T02:26:18.170Z,18.13
2018-09-01T02:26:52.010Z,18.73
2018-09-01T02:27:26.030Z,18.70
2018-09-01T02:27:59.873Z,18.07
2018-09-01T02:28:33.768Z,19.00
2018-09-01T02:29:07.796Z,18.63
2018-09-01T02:29:41.647Z,19.27
2018-09-01T02:30:15.504Z,18.50
2018-09-01T02:30:49.352Z,18.30
2018-09-01T02:31:23.226Z,19.83
2018-09-01T02:31:57.052Z,18.33
2018-09-01T02:32:30.906Z,18.20
2018-09-01T02:33:05.070Z,18.73
2018-09-01T02:33:38.892Z,20.83
2018-09-01T02:34:13.071Z,18.40
2018-09-01T02:34:46.900Z,18.80
2018-09-01T02:35:20.726Z,19.33
2018-09-01T02:35:54.916Z,19.00
2018-09-01T02:36:28.784Z,18.07
2018-09-01T02:37:02.643Z,19.73
2018-09-01T02:37:36.556Z,18.20
2018-09-01T02:38:10.416Z,18.40
2018-09-01T02:38:50.859Z,18.90
2018-09-01T02:39:24.925Z,19.40
2018-09-01T02:39:58.758Z,19.40
2018-09-01T02:40:32.932Z,18.53
2018-09-01T02:41:07.462Z,18.90
2018-09-01T02:41:41.357Z,17.47
2018-09-01T02:42:15.234Z,18.57
2018-09-01T02:42:49.080Z,20.20
2018-09-01T02:43:22.920Z,17.87
2018-09-01T02:43:56.750Z,17.87
2018-09-01T02:44:30.584Z,19.00
2018-09-01T02:45:04.756Z,19.80
2018-09-01T02:45:38.956Z,20.67
2018-09-01T02:46:12.794Z,17.90
2018-09-01T02:46:46.994Z,19.03
2018-09-01T02:47:21.178Z,17.67
2018-09-01T02:47:55.074Z,19.53
2018-09-01T02:48:29.110Z,19.23
2018-09-01T02:49:03.418Z,20.43
2018-09-01T02:49:37.265Z,19.97
2018-09-01T02:50:11.110Z,18.10
2018-09-01T02:50:44.932Z,19.30
2018-09-01T02:51:19.104Z,20.87
2018-09-01T02:51:53.268Z,21.13
2018-09-01T02:52:27.090Z,19.60
2018-09-01T02:53:01.006Z,19.63
2018-09-01T02:53:34.858Z,19.97
2018-09-01T02:54:08.668Z,20.67
2018-09-01T02:54:42.524Z,20.20
2018-09-01T02:55:16.330Z,20.57
2018-09-01T02:55:50.190Z,18.40
2018-09-01T02:56:24.354Z,19.73
2018-09-01T02:56:58.178Z,20.40
2018-09-01T02:57:32.034Z,19.37
2018-09-01T02:58:06.590Z,19.20
2018-09-01T02:58:40.442Z,20.83
2018-09-01T02:59:14.276Z,19.73
2018-09-01T02:59:48.108Z,20.13
2018-09-01T03:00:27.350Z,19.30
2018-09-01T03:01:06.918Z,19.60
2018-09-01T03:01:41.130Z,18.33
2018-09-01T03:02:19.250Z,18.63
2018-09-01T03:02:53.094Z,18.83
2018-09-01T03:03:26.976Z,19.77
2018-09-01T03:04:01.278Z,19.23
2018-09-01T03:04:35.770Z,20.80
2018-09-01T03:05:09.954Z,20.30
2018-09-01T03:05:43.816Z,19.70
2018-09-01T03:06:17.702Z,19.73
2018-09-01T03:06:55.230Z,19.83
2018-09-01T03:07:29.062Z,20.77
2018-09-01T03:08:03.757Z,20.73
2018-09-01T03:08:38.217Z,19.37
2018-09-01T03:09:12.045Z,18.87
2018-09-01T03:09:45.888Z,20.60
2018-09-01T03:10:19.735Z,20.60
2018-09-01T03:10:53.582Z,21.10
2018-09-01T03:11:27.772Z,20.57
2018-09-01T03:12:01.626Z,20.47
2018-09-01T03:12:35.474Z,19.87
2018-09-01T03:13:09.310Z,22.00
2018-09-01T03:13:43.196Z,19.87
2018-09-01T03:14:17.032Z,18.60
2018-09-01T03:14:50.906Z,21.00
2018-09-01T03:15:24.764Z,20.33
2018-09-01T03:15:58.940Z,19.87
2018-09-01T03:16:32.798Z,21.30
2018-09-01T03:17:07.285Z,19.37
2018-09-01T03:17:41.172Z,20.23
2018-09-01T03:18:15.060Z,19.30
2018-09-01T03:18:48.902Z,20.10
2018-09-01T03:19:23.614Z,20.47
2018-09-01T03:19:57.456Z,20.07
2018-09-01T03:20:31.321Z,22.33
2018-09-01T03:21:05.860Z,19.30
2018-09-01T03:21:40.402Z,18.93
2018-09-01T03:22:14.238Z,19.87
2018-09-01T03:22:48.114Z,19.83
2018-09-01T03:23:22.010Z,19.20
2018-09-01T03:23:55.918Z,19.40
2018-09-01T03:24:29.768Z,19.60
2018-09-01T03:25:03.604Z,19.20
2018-09-01T03:25:37.510Z,20.00
2018-09-01T03:26:11.356Z,19.57
2018-09-01T03:26:45.229Z,19.67
2018-09-01T03:27:19.445Z,19.23
2018-09-01T03:27:53.279Z,18.50
2018-09-01T03:28:27.140Z,20.03
2018-09-01T03:29:01.039Z,20.23
2018-09-01T03:29:35.075Z,20.23
2018-09-01T03:30:08.956Z,18.07
2018-09-01T03:30:43.395Z,19.10
2018-09-01T03:31:17.378Z,20.20
2018-09-01T03:31:51.229Z,18.90
2018-09-01T03:32:25.064Z,18.60
2018-09-01T03:32:59.254Z,18.47
2018-09-01T03:33:33.095Z,19.60
2018-09-01T03:34:07.659Z,18.67
2018-09-01T03:34:41.522Z,19.27
2018-09-01T03:35:15.370Z,20.20
2018-09-01T03:35:49.224Z,19.23
2018-09-01T03:36:23.048Z,19.80
2018-09-01T03:36:56.872Z,20.10
2018-09-01T03:37:30.714Z,19.27
2018-09-01T03:38:05.005Z,20.10
2018-09-01T03:38:38.850Z,19.87
2018-09-01T03:39:13.058Z,19.70
2018-09-01T03:39:46.877Z,18.70
2018-09-01T03:40:20.729Z,20.60
2018-09-01T03:40:55.239Z,18.80
2018-09-01T03:41:29.428Z,19.00
2018-09-01T03:42:03.607Z,19.40
2018-09-01T03:42:37.586Z,19.20
2018-09-01T03:43:11.795Z,19.80
2018-09-01T03:43:45.612Z,19.70
2018-09-01T03:44:19.477Z,21.00
2018-09-01T03:44:53.455Z,18.80
2018-09-01T03:45:27.656Z,21.33
2018-09-01T03:46:01.461Z,19.00
2018-09-01T03:46:35.350Z,20.03
2018-09-01T03:47:09.496Z,19.77
2018-09-01T03:47:43.341Z,20.90
2018-09-01T03:48:17.164Z,21.53
2018-09-01T03:48:51.281Z,20.83
2018-09-01T03:49:25.128Z,20.50
2018-09-01T03:49:58.977Z,20.93
2018-09-01T03:50:33.160Z,20.80
2018-09-01T03:51:07.320Z,22.23
2018-09-01T03:51:41.500Z,20.50
2018-09-01T03:52:15.369Z,20.33
2018-09-01T03:52:49.258Z,22.00
2018-09-01T03:53:23.427Z,21.77
2018-09-01T03:53:57.658Z,21.03
2018-09-01T03:54:31.504Z,20.70
2018-09-01T03:55:05.924Z,20.97
2018-09-01T03:55:40.140Z,20.80
2018-09-01T03:56:14.014Z,19.43
2018-09-01T03:56:47.859Z,19.73
2018-09-01T03:57:21.732Z,21.57
2018-09-01T03:57:55.649Z,20.77
2018-09-01T03:58:29.830Z,19.90
2018-09-01T03:59:03.686Z,19.93
2018-09-01T03:59:37.593Z,20.30
2018-09-01T04:00:11.764Z,22.60
2018-09-01T04:00:45.611Z,21.33
2018-09-01T04:01:19.483Z,19.83
2018-09-01T04:01:53.512Z,19.37
2018-09-01T04:02:27.404Z,20.50
2018-09-01T04:03:01.239Z,21.27
2018-09-01T04:03:35.599Z,21.43
2018-09-01T04:04:09.431Z,20.67
2018-09-01T04:04:43.308Z,21.13
2018-09-01T04:05:17.159Z,19.50
2018-09-01T04:05:50.993Z,21.77
2018-09-01T04:06:25.022Z,20.87
2018-09-01T04:06:59.195Z,20.50
2018-09-01T04:07:33.392Z,20.37
2018-09-01T04:08:07.247Z,21.00
2018-09-01T04:08:41.123Z,19.90
2018-09-01T04:09:15.439Z,20.60
2018-09-01T04:09:49.649Z,20.53
2018-09-01T04:10:24.269Z,20.97
2018-09-01T04:10:58.112Z,20.07
2018-09-01T04:11:31.945Z,19.90
2018-09-01T04:12:06.133Z,21.27
2018-09-01T04:12:39.975Z,20.53
2018-09-01T04:13:13.842Z,19.33
2018-09-01T04:13:47.686Z,19.60
2018-09-01T04:14:21.543Z,22.07
2018-09-01T04:14:55.453Z,21.60
2018-09-01T04:15:29.286Z,20.50
2018-09-01T04:16:03.475Z,20.10
2018-09-01T04:16:37.306Z,20.60
2018-09-01T04:17:11.157Z,19.63
2018-09-01T04:17:45.321Z,21.07
2018-09-01T04:18:19.525Z,19.80
2018-09-01T04:18:53.459Z,19.80
2018-09-01T04:19:27.623Z,20.77
2018-09-01T04:20:01.479Z,21.10
2018-09-01T04:20:35.309Z,20.43
2018-09-01T04:21:09.507Z,20.60
2018-09-01T04:21:43.533Z,20.93
2018-09-01T04:22:17.693Z,21.80
2018-09-01T04:22:51.631Z,20.73
2018-09-01T04:23:25.469Z,19.97
2018-09-01T04:23:59.637Z,21.77
2018-09-01T04:24:33.519Z,21.40
2018-09-01T04:25:08.055Z,20.10
2018-09-01T04:25:41.933Z,21.03
2018-09-01T04:26:15.771Z,22.07
2018-09-01T04:26:49.981Z,22.77
2018-09-01T04:27:24.163Z,21.70
2018-09-01T04:27:57.993Z,20.50
2018-09-01T04:28:32.157Z,21.57
2018-09-01T04:29:06.041Z,20.93
2018-09-01T04:29:39.878Z,21.07
2018-09-01T04:30:14.127Z,21.40
2018-09-01T04:30:47.966Z,19.20
2018-09-01T04:31:21.785Z,19.70
2018-09-01T04:31:55.634Z,21.10
2018-09-01T04:32:29.458Z,21.83
2018-09-01T04:33:03.657Z,20.17
2018-09-01T04:33:37.548Z,21.20
2018-09-01T04:34:11.378Z,21.90
2018-09-01T04:34:45.225Z,19.10
2018-09-01T04:35:19.121Z,20.13
2018-09-01T04:35:53.486Z,20.53
2018-09-01T04:36:27.311Z,20.47
2018-09-01T04:37:01.129Z,19.70
2018-09-01T04:37:34.968Z,20.63
2018-09-01T04:38:08.802Z,20.60
2018-09-01T04:38:42.661Z,19.47
2018-09-01T04:39:16.499Z,19.57
2018-09-01T04:39:50.346Z,20.87
2018-09-01T04:40:24.701Z,20.07
2018-09-01T04:40:58.550Z,20.50
2018-09-01T04:41:32.466Z,21.63
2018-09-01T04:42:06.659Z,21.73
2018-09-01T04:42:40.503Z,21.40
2018-09-01T04:43:14.401Z,21.00
2018-09-01T04:43:48.604Z,20.27
2018-09-01T04:44:22.450Z,21.47
2018-09-01T04:44:56.316Z,21.60
2018-09-01T04:45:30.215Z,20.63
2018-09-01T04:46:04.724Z,21.07
2018-09-01T04:46:38.731Z,21.60
2018-09-01T04:47:12.948Z,20.23
2018-09-01T04:47:47.336Z,19.57
2018-09-01T04:48:21.535Z,20.87
2018-09-01T04:48:55.468Z,21.67
2018-09-01T04:49:29.940Z,20.47
2018-09-01T04:50:03.950Z,20.77
2018-09-01T04:50:38.176Z,20.27
2018-09-01T04:51:12.438Z,21.67
2018-09-01T04:51:46.292Z,20.33
2018-09-01T04:52:20.106Z,20.30
2018-09-01T04:52:54.337Z,20.50
2018-09-01T04:53:28.236Z,19.97
2018-09-01T04:54:02.419Z,19.37
2018-09-01T04:54:36.278Z,19.60
2018-09-01T04:55:10.811Z,19.23
2018-09-01T04:55:44.727Z,19.10
2018-09-01T04:56:18.635Z,20.50
2018-09-01T04:56:52.494Z,19.00
2018-09-01T04:57:26.348Z,18.80
2018-09-01T04:58:00.553Z,18.70
2018-09-01T04:58:34.416Z,18.03
2018-09-01T04:59:08.282Z,17.43
2018-09-01T04:59:42.156Z,17.90
2018-09-01T05:00:21.527Z,17.97
2018-09-01T05:00:55.494Z,15.83
2018-09-01T05:01:29.583Z,17.60
2018-09-01T05:02:04.257Z,17.23
2018-09-01T05:02:38.112Z,17.50
2018-09-01T05:03:12.197Z,18.40
2018-09-01T05:03:46.046Z,16.37
2018-09-01T05:04:19.889Z,15.33
2018-09-01T05:04:53.725Z,16.27
2018-09-01T05:05:27.907Z,17.20
2018-09-01T05:06:01.768Z,16.30
2018-09-01T05:06:35.593Z,15.77
2018-09-01T05:07:09.407Z,16.43
2018-09-01T05:07:43.245Z,18.73
2018-09-01T05:08:17.082Z,17.80
2018-09-01T05:08:50.948Z,18.00
2018-09-01T05:09:25.174Z,17.30
2018-09-01T05:09:59.033Z,16.37
2018-09-01T05:10:32.897Z,16.80
2018-09-01T05:11:07.124Z,17.80
2018-09-01T05:11:41.276Z,17.10
2018-09-01T05:12:15.128Z,16.77
2018-09-01T05:12:49.979Z,17.37
2018-09-01T05:13:23.837Z,17.13
2018-09-01T05:13:57.683Z,15.80
2018-09-01T05:14:31.555Z,17.90
2018-09-01T05:15:05.744Z,17.20
2018-09-01T05:15:40.586Z,17.90
2018-09-01T05:16:14.442Z,17.40
2018-09-01T05:16:48.281Z,16.30
2018-09-01T05:17:22.455Z,16.67
2018-09-01T05:17:56.286Z,17.80
2018-09-01T05:18:30.148Z,16.40
2018-09-01T05:19:03.990Z,16.47
2018-09-01T05:19:37.814Z,15.93
2018-09-01T05:20:11.665Z,16.80
2018-09-01T05:20:45.522Z,16.10
2018-09-01T05:21:19.642Z,16.63
2018-09-01T05:21:53.472Z,18.40
2018-09-01T05:22:27.300Z,18.60
2018-09-01T05:23:01.138Z,17.60
2018-09-01T05:23:34.988Z,17.57
2018-09-01T05:24:09.264Z,20.10
2018-09-01T05:24:43.109Z,17.67
2018-09-01T05:25:17.256Z,17.37
2018-09-01T05:25:51.435Z,17.20
2018-09-01T05:26:25.656Z,17.30
2018-09-01T05:26:59.806Z,17.30
2018-09-01T05:27:33.662Z,17.00
2018-09-01T05:28:07.500Z,17.73
2018-09-01T05:28:41.344Z,17.90
2018-09-01T05:29:15.192Z,17.23
2018-09-01T05:29:49.036Z,18.67
2018-09-01T05:30:23.207Z,18.33
2018-09-01T05:30:57.059Z,17.33
2018-09-01T05:31:30.926Z,17.40
2018-09-01T05:32:05.651Z,18.27
2018-09-01T05:32:39.492Z,18.87
2018-09-01T05:33:13.340Z,17.97
2018-09-01T05:33:47.172Z,17.10
2018-09-01T05:34:21.062Z,18.07
2018-09-01T05:34:54.926Z,17.00
2018-09-01T05:35:28.760Z,17.07
2018-09-01T05:36:02.944Z,17.87
2018-09-01T05:36:36.912Z,18.17
2018-09-01T05:37:10.879Z,17.77
2018-09-01T05:37:44.726Z,15.83
2018-09-01T05:38:18.620Z,15.90
2018-09-01T05:38:52.798Z,16.13
2018-09-01T05:39:26.652Z,15.97
2018-09-01T05:40:00.530Z,16.40
2018-09-01T05:40:34.725Z,16.17
2018-09-01T05:41:08.599Z,15.87
2018-09-01T05:41:42.810Z,14.43
2018-09-01T05:42:16.676Z,15.40
2018-09-01T05:42:50.625Z,16.00
2018-09-01T05:43:24.480Z,15.53
2018-09-01T05:43:58.337Z,14.07
2018-09-01T05:44:32.210Z,13.83
2018-09-01T05:45:06.200Z,14.10
2018-09-01T05:45:40.189Z,13.50
2018-09-01T05:46:14.005Z,14.53
2018-09-01T05:46:47.873Z,15.23
2018-09-01T05:47:21.732Z,12.90
2018-09-01T05:48:02.293Z,15.10
2018-09-01T05:48:36.151Z,13.60
2018-09-01T05:49:09.988Z,13.73
2018-09-01T05:49:43.828Z,13.53
2018-09-01T05:50:17.666Z,13.30
2018-09-01T05:50:51.954Z,13.10
2018-09-01T05:51:26.222Z,12.80
2018-09-01T05:52:00.075Z,13.03
2018-09-01T05:52:34.266Z,14.23
2018-09-01T05:53:08.280Z,14.27
2018-09-01T05:53:42.137Z,12.13
2018-09-01T05:54:15.975Z,13.80
2018-09-01T05:54:50.242Z,12.80
2018-09-01T05:55:24.106Z,13.40
2018-09-01T05:55:57.942Z,14.30
2018-09-01T05:56:32.112Z,12.80
2018-09-01T05:57:06.744Z,13.13
2018-09-01T05:57:40.594Z,13.60
2018-09-01T05:58:14.776Z,12.57
2018-09-01T05:58:48.640Z,11.70
2018-09-01T05:59:22.661Z,12.30
2018-09-01T05:59:56.483Z,12.80
2018-09-01T06:00:35.741Z,11.60
2018-09-01T06:01:09.706Z,13.50
2018-09-01T06:01:43.851Z,13.10
2018-09-01T06:02:18.053Z,12.40
2018-09-01T06:02:53.494Z,13.00
2018-09-01T06:03:27.360Z,12.50
2018-09-01T06:04:01.478Z,12.50
2018-09-01T06:04:35.329Z,12.53
2018-09-01T06:05:09.540Z,13.30
2018-09-01T06:05:43.731Z,11.87
2018-09-01T06:06:17.643Z,12.77
2018-09-01T06:06:51.640Z,12.70
2018-09-01T06:07:25.522Z,11.87
2018-09-01T06:07:59.408Z,13.07
2018-09-01T06:08:33.320Z,13.13
2018-09-01T06:09:09.058Z,13.70
2018-09-01T06:09:42.922Z,12.37
2018-09-01T06:10:17.166Z,12.57
2018-09-01T06:10:51.001Z,13.80
2018-09-01T06:11:24.848Z,13.37
2018-09-01T06:11:58.709Z,12.70
2018-09-01T06:12:33.616Z,14.03
2018-09-01T06:13:07.454Z,13.07
2018-09-01T06:13:41.279Z,13.00
2018-09-01T06:14:15.190Z,12.60
2018-09-01T06:14:49.036Z,12.60
2018-09-01T06:15:22.897Z,12.70
2018-09-01T06:15:56.774Z,12.73
2018-09-01T06:16:30.630Z,13.10
2018-09-01T06:17:05.682Z,13.47
2018-09-01T06:17:39.769Z,12.73
2018-09-01T06:18:13.768Z,12.70
2018-09-01T06:18:47.652Z,13.30
2018-09-01T06:19:21.619Z,13.73
2018-09-01T06:19:55.612Z,13.53
2018-09-01T06:20:29.522Z,13.33
2018-09-01T06:21:03.443Z,13.70
2018-09-01T06:21:37.590Z,12.33
2018-09-01T06:22:11.432Z,13.53
2018-09-01T06:22:45.376Z,12.87
2018-09-01T06:23:19.250Z,13.20
2018-09-01T06:23:53.152Z,13.03
2018-09-01T06:24:27.177Z,12.43
2018-09-01T06:25:01.067Z,12.83
2018-09-01T06:25:35.252Z,12.17
2018-09-01T06:26:09.456Z,13.20
2018-09-01T06:26:43.324Z,12.00
2018-09-01T06:27:31.637Z,11.43
2018-09-01T06:28:16.630Z,11.80
2018-09-01T06:28:56.111Z,10.73
2018-09-01T06:29:30.004Z,11.27
2018-09-01T06:30:38.035Z,11.13
2018-09-01T06:31:12.232Z,10.60
2018-09-01T06:31:52.327Z,10.30
2018-09-01T06:32:26.372Z,10.80
2018-09-01T06:33:00.245Z,11.10
2018-09-01T06:33:34.637Z,10.20
2018-09-01T06:34:08.488Z,11.00
2018-09-01T06:34:42.354Z,11.10
2018-09-01T06:35:16.240Z,10.60
2018-09-01T06:35:50.244Z,9.73
2018-09-01T06:36:24.107Z,11.20
2018-09-01T06:36:57.968Z,10.07
2018-09-01T06:37:32.229Z,11.37
2018-09-01T06:38:06.378Z,9.90
2018-09-01T06:38:40.574Z,11.00
2018-09-01T06:39:14.423Z,10.37
2018-09-01T06:39:48.300Z,11.07
2018-09-01T06:40:22.154Z,9.70
2018-09-01T06:40:55.994Z,9.87
2018-09-01T06:41:29.839Z,10.63
2018-09-01T06:42:04.039Z,10.37
2018-09-01T06:42:37.918Z,10.00
2018-09-01T06:43:11.867Z,9.37
2018-09-01T06:43:45.900Z,9.70
2018-09-01T06:44:19.784Z,9.00
2018-09-01T06:44:53.634Z,8.50
2018-09-01T06:45:27.472Z,9.17
2018-09-01T06:46:01.452Z,8.90
2018-09-01T06:46:35.606Z,9.63
2018-09-01T06:47:09.806Z,8.90
2018-09-01T06:47:43.642Z,8.80
2018-09-01T06:48:17.550Z,9.13
2018-09-01T06:48:51.969Z,8.70
2018-09-01T06:49:25.826Z,9.70
2018-09-01T06:49:59.678Z,8.47
2018-09-01T06:50:33.832Z,8.93
2018-09-01T06:51:07.672Z,7.13
2018-09-01T06:51:41.525Z,7.70
2018-09-01T06:52:15.322Z,7.73
2018-09-01T06:53:53.153Z,6.80
2018-09-01T06:54:27.029Z,6.83
2018-09-01T06:55:00.907Z,6.97
2018-09-01T06:55:34.770Z,7.67
2018-09-01T06:56:08.949Z,8.07
2018-09-01T06:56:43.172Z,7.53
2018-09-01T06:57:17.010Z,7.00
2018-09-01T06:57:51.558Z,7.97
2018-09-01T06:58:25.373Z,6.47
2018-09-01T06:58:59.228Z,7.30
2018-09-01T06:59:33.405Z,6.70
2018-09-01T07:00:07.268Z,6.90
2018-09-01T07:00:42.024Z,7.17
2018-09-01T07:01:15.890Z,8.07
2018-09-01T07:01:56.715Z,7.97
2018-09-01T07:02:30.665Z,7.97
2018-09-01T07:03:04.519Z,8.23
2018-09-01T07:03:38.423Z,7.40
2018-09-01T07:04:12.294Z,7.10
2018-09-01T07:04:46.516Z,7.93
2018-09-01T07:05:20.397Z,7.80
2018-09-01T07:05:54.280Z,7.90
2018-09-01T07:06:28.482Z,7.00
2018-09-01T07:07:02.298Z,7.60
2018-09-01T07:07:36.488Z,8.30
2018-09-01T07:08:10.420Z,7.60
2018-09-01T07:08:44.306Z,8.00
2018-09-01T07:09:18.985Z,7.67
2018-09-01T07:09:53.182Z,7.40
2018-09-01T07:10:27.344Z,8.20
2018-09-01T07:11:01.208Z,8.20
2018-09-01T07:11:35.062Z,6.80
2018-09-01T07:12:09.230Z,7.53
2018-09-01T07:12:43.083Z,8.73
2018-09-01T07:13:17.248Z,7.33
2018-09-01T07:13:51.094Z,7.93
2018-09-01T07:14:24.976Z,7.47
2018-09-01T07:14:59.586Z,7.17
2018-09-01T07:15:33.442Z,7.00
2018-09-01T07:16:07.617Z,6.93
2018-09-01T07:16:41.544Z,7.80
2018-09-01T07:17:15.379Z,7.57
2018-09-01T07:17:49.602Z,7.80
2018-09-01T07:18:23.538Z,7.67
2018-09-01T07:18:57.413Z,8.30
2018-09-01T07:19:31.286Z,7.80
2018-09-01T07:20:05.180Z,7.87
2018-09-01T07:20:39.060Z,7.47
2018-09-01T07:21:13.295Z,7.70
2018-09-01T07:21:47.618Z,7.90
2018-09-01T07:22:21.496Z,7.37
2018-09-01T07:22:55.395Z,8.00